Time;durP1;ratioP1;P1;durP2;ratioP2;P2;SDS_P1;SDS_P2;PMS_P1;PMS_P2;Temp;Humidity;BMP_temperature;BMP_pressure;BME280_temperature;BME280_humidity;BME280_pressure;Samples;Min_cycle;Max_cycle;Signal;HPM_P1;HPM_P2
2022/10/04 00:00:08;;;;;;;14.70;4.00;;;11.10;1.00;;;;;;5090782;28;20508;-49
2022/10/04 00:02:35;;;;;;;10.73;3.73;;;11.00;1.00;;;;;;5091481;28;20453;-49
2022/10/04 00:05:11;;;;;;;10.30;3.90;;;11.00;1.00;;;;;;5092334;28;20474;-49
2022/10/04 00:07:45;;;;;;;8.53;3.57;;;11.00;1.00;;;;;;5099640;28;20443;-49
2022/10/04 00:10:24;;;;;;;9.73;3.30;;;10.90;1.00;;;;;;5090025;28;21073;-49
2022/10/04 00:13:00;;;;;;;15.20;4.47;;;10.80;1.00;;;;;;5089435;28;20500;-49
2022/10/04 00:15:31;;;;;;;11.70;3.50;;;10.80;1.00;;;;;;5091092;28;20876;-49
2022/10/04 00:18:27;;;;;;;11.67;4.50;;;10.80;1.00;;;;;;5089314;28;20446;-49
2022/10/04 00:20:52;;;;;;;12.77;4.07;;;10.80;1.00;;;;;;5073265;28;20434;-46
2022/10/04 00:23:24;;;;;;;10.80;3.87;;;10.70;1.00;;;;;;5091175;28;20412;-47
2022/10/04 00:26:14;;;;;;;10.87;3.47;;;10.70;1.00;;;;;;5080630;28;20181;-47
2022/10/04 00:28:46;;;;;;;11.03;3.50;;;10.60;1.00;;;;;;5082950;28;20430;-52
2022/10/04 00:31:20;;;;;;;7.60;3.30;;;10.60;1.00;;;;;;5079483;28;20426;-46
2022/10/04 00:34:07;;;;;;;11.60;4.27;;;10.60;1.00;;;;;;5072760;28;20438;-46
2022/10/04 00:36:37;;;;;;;12.20;4.00;;;10.60;1.00;;;;;;5088658;28;20912;-46
2022/10/04 00:39:03;;;;;;;10.80;3.67;;;10.60;1.00;;;;;;5089671;28;20427;-47
2022/10/04 00:41:47;;;;;;;9.43;4.23;;;10.60;1.00;;;;;;5087325;28;20445;-46
2022/10/04 00:44:46;;;;;;;17.40;3.63;;;10.50;1.00;;;;;;5086647;28;20463;-46
2022/10/04 00:47:30;;;;;;;11.87;3.73;;;10.40;1.00;;;;;;5071085;28;20435;-46
2022/10/04 00:50:02;;;;;;;12.30;3.43;;;10.40;1.00;;;;;;5069364;28;20880;-48
2022/10/04 00:52:34;;;;;;;13.60;3.77;;;10.40;1.00;;;;;;5075306;28;20535;-46
2022/10/04 00:55:06;;;;;;;10.30;4.27;;;10.50;1.00;;;;;;5074877;28;20446;-46
2022/10/04 00:57:44;;;;;;;9.67;3.27;;;10.40;1.00;;;;;;5073671;28;20443;-46
2022/10/04 01:00:20;;;;;;;9.47;4.10;;;10.40;1.00;;;;;;5073861;28;20431;-46
2022/10/04 01:02:58;;;;;;;12.77;4.03;;;10.40;1.00;;;;;;5073453;28;20469;-47
2022/10/04 01:05:30;;;;;;;13.40;4.63;;;10.40;1.00;;;;;;5071743;28;20462;-47
2022/10/04 01:08:05;;;;;;;16.97;4.57;;;10.40;1.00;;;;;;5088328;28;20434;-47
2022/10/04 01:10:38;;;;;;;10.43;4.37;;;10.40;1.00;;;;;;5074251;28;20430;-47
2022/10/04 01:13:17;;;;;;;11.93;4.00;;;10.40;1.00;;;;;;5076543;28;20431;-47
2022/10/04 01:16:08;;;;;;;11.03;4.30;;;10.40;1.00;;;;;;5077646;28;20960;-47
2022/10/04 01:18:35;;;;;;;17.27;4.40;;;10.40;1.00;;;;;;5078271;28;20443;-46
2022/10/04 01:21:03;;;;;;;16.63;5.13;;;10.30;1.00;;;;;;5076558;28;20495;-46
2022/10/04 01:23:50;;;;;;;13.87;5.70;;;10.40;1.00;;;;;;5076773;28;21523;-47
2022/10/04 01:26:28;;;;;;;10.47;4.57;;;10.40;1.00;;;;;;5075579;28;20474;-47
2022/10/04 01:29:14;;;;;;;13.90;6.40;;;10.40;1.00;;;;;;5076047;28;20430;-47
2022/10/04 01:31:45;;;;;;;14.37;5.70;;;10.40;1.00;;;;;;5078230;28;20855;-49
2022/10/04 01:34:17;;;;;;;13.30;4.47;;;10.40;1.00;;;;;;5071456;28;20443;-49
2022/10/04 01:36:44;;;;;;;16.27;5.27;;;10.40;1.00;;;;;;5079755;28;20567;-49
2022/10/04 01:39:11;;;;;;;12.13;5.37;;;10.40;1.00;;;;;;5076249;28;20488;-49
2022/10/04 01:41:37;;;;;;;13.03;4.27;;;10.40;1.00;;;;;;5074535;28;21185;-49
2022/10/04 01:44:08;;;;;;;18.40;5.20;;;10.40;1.00;;;;;;5064692;28;20520;-49
2022/10/04 01:46:36;;;;;;;10.70;4.53;;;10.40;1.00;;;;;;5072872;28;20519;-49
2022/10/04 01:49:08;;;;;;;11.60;4.80;;;10.30;1.00;;;;;;5078776;28;20869;-49
2022/10/04 01:51:41;;;;;;;14.13;4.23;;;10.30;1.00;;;;;;5079074;28;21218;-49
2022/10/04 01:54:13;;;;;;;8.50;4.10;;;10.20;1.00;;;;;;5074725;28;20526;-49
2022/10/04 01:57:12;;;;;;;14.80;4.80;;;10.20;1.00;;;;;;5075248;28;20514;-49
2022/10/04 02:00:01;;;;;;;16.80;5.30;;;10.20;1.00;;;;;;5067942;28;20495;-49
2022/10/04 02:02:39;;;;;;;19.90;4.97;;;10.20;1.00;;;;;;5091274;28;20435;-48
2022/10/04 02:05:09;;;;;;;12.83;5.17;;;10.20;1.00;;;;;;5088304;28;20485;-51
2022/10/04 02:07:38;;;;;;;14.93;4.80;;;10.20;1.00;;;;;;5090872;28;20515;-49
2022/10/04 02:10:07;;;;;;;13.30;6.10;;;10.20;1.00;;;;;;5091557;28;20476;-49
2022/10/04 02:12:34;;;;;;;10.27;4.77;;;10.30;1.00;;;;;;5091562;28;21129;-49
2022/10/04 02:15:03;;;;;;;17.53;4.57;;;10.30;1.00;;;;;;5092724;28;20438;-49
2022/10/04 02:17:32;;;;;;;11.90;4.47;;;10.30;1.00;;;;;;5091473;28;20451;-49
2022/10/04 02:20:00;;;;;;;14.93;5.13;;;10.30;1.00;;;;;;5091775;28;20422;-49
2022/10/04 02:22:26;;;;;;;10.53;4.53;;;10.30;1.00;;;;;;5090998;28;20470;-49
2022/10/04 02:24:54;;;;;;;8.10;4.10;;;10.30;1.00;;;;;;5091865;28;20471;-48
2022/10/04 02:27:28;;;;;;;9.93;4.47;;;10.40;1.00;;;;;;5091397;28;20508;-49
2022/10/04 02:30:03;;;;;;;8.70;4.80;;;10.40;1.00;;;;;;5091638;28;20480;-49
2022/10/04 02:35:16;;;;;;;11.13;3.83;;;10.30;1.00;;;;;;5091782;28;20516;-48
2022/10/04 02:37:43;;;;;;;11.90;4.93;;;10.40;1.00;;;;;;5090455;28;20431;-49
2022/10/04 02:40:12;;;;;;;16.77;5.57;;;10.40;1.00;;;;;;5091209;28;20435;-48
2022/10/04 02:42:59;;;;;;;15.53;4.43;;;10.40;1.00;;;;;;5091174;28;20431;-48
2022/10/04 02:45:48;;;;;;;10.53;4.40;;;10.40;1.00;;;;;;5090538;28;20465;-48
2022/10/04 02:48:25;;;;;;;11.23;4.17;;;10.40;1.00;;;;;;5091705;28;20427;-49
2022/10/04 02:50:54;;;;;;;12.50;4.40;;;10.40;1.00;;;;;;5090099;28;20439;-48
2022/10/04 02:53:31;;;;;;;12.20;4.60;;;10.50;1.00;;;;;;5090182;28;20446;-48
2022/10/04 02:55:57;;;;;;;12.83;4.73;;;10.40;1.00;;;;;;5081977;28;20504;-49
2022/10/04 02:58:25;;;;;;;17.23;5.23;;;10.40;1.00;;;;;;5090198;28;20526;-48
2022/10/04 03:00:56;;;;;;;15.07;4.33;;;10.40;1.00;;;;;;5086761;28;20559;-50
2022/10/04 03:03:31;;;;;;;12.83;4.20;;;10.40;1.00;;;;;;5086410;28;20447;-48
2022/10/04 03:06:08;;;;;;;16.90;5.63;;;10.40;1.00;;;;;;5077139;28;20442;-48
2022/10/04 03:08:42;;;;;;;19.63;4.83;;;10.50;1.00;;;;;;5090270;28;20430;-49
2022/10/04 03:11:09;;;;;;;9.17;4.03;;;10.40;1.00;;;;;;5090589;28;20438;-49
2022/10/04 03:13:40;;;;;;;10.97;5.10;;;10.40;1.00;;;;;;5089375;28;20515;-49
2022/10/04 03:16:07;;;;;;;10.13;4.97;;;10.40;1.00;;;;;;5091616;28;20808;-49
2022/10/04 03:18:34;;;;;;;15.63;5.33;;;10.40;1.00;;;;;;5090818;28;20453;-48
2022/10/04 03:21:04;;;;;;;12.53;5.57;;;10.40;1.00;;;;;;5090563;28;20439;-49
2022/10/04 03:23:32;;;;;;;15.17;7.30;;;10.40;1.00;;;;;;5090165;28;20561;-49
2022/10/04 03:26:23;;;;;;;13.90;5.70;;;10.40;1.00;;;;;;5091508;28;20431;-49
2022/10/04 03:28:48;;;;;;;17.43;5.53;;;10.40;1.00;;;;;;5090154;28;20438;-49
2022/10/04 03:31:15;;;;;;;16.40;5.63;;;10.40;1.00;;;;;;5083942;28;20435;-48
2022/10/04 03:33:43;;;;;;;13.30;5.50;;;10.40;1.00;;;;;;5087635;28;20628;-48
2022/10/04 03:36:13;;;;;;;11.80;5.67;;;10.40;1.00;;;;;;5090407;28;20491;-49
2022/10/04 03:38:39;;;;;;;9.07;5.37;;;10.40;1.00;;;;;;5091088;28;21173;-49
2022/10/04 03:41:06;;;;;;;12.80;6.77;;;10.40;1.00;;;;;;5070091;28;20474;-49
2022/10/04 03:43:36;;;;;;;18.80;6.10;;;10.40;1.00;;;;;;5084660;28;20567;-49
2022/10/04 03:46:04;;;;;;;14.90;6.13;;;10.40;1.00;;;;;;5088548;28;20510;-49
2022/10/04 03:48:51;;;;;;;17.90;5.57;;;10.50;1.00;;;;;;5091009;28;20851;-48
2022/10/04 03:51:22;;;;;;;9.60;5.30;;;10.50;1.00;;;;;;5089957;28;20478;-48
2022/10/04 03:53:54;;;;;;;15.00;5.07;;;10.60;1.00;;;;;;5090225;28;20470;-48
2022/10/04 03:56:32;;;;;;;20.40;5.83;;;10.50;1.00;;;;;;5089697;28;20548;-49
2022/10/04 03:59:00;;;;;;;17.53;5.50;;;10.60;1.00;;;;;;5090872;28;20449;-49
2022/10/04 04:01:35;;;;;;;14.27;5.60;;;10.60;1.00;;;;;;5088951;28;20442;-49
2022/10/04 04:04:30;;;;;;;11.33;5.30;;;10.60;1.00;;;;;;5086631;28;20466;-49
2022/10/04 04:07:00;;;;;;;18.90;5.63;;;10.60;1.00;;;;;;5071086;28;20420;-48
2022/10/04 04:09:35;;;;;;;12.87;5.00;;;10.60;1.00;;;;;;5089324;28;20434;-49
2022/10/04 04:12:05;;;;;;;20.07;5.43;;;10.60;1.00;;;;;;5090476;28;20440;-49
2022/10/04 04:14:30;;;;;;;22.20;5.50;;;10.60;1.00;;;;;;5088879;28;20447;-49
2022/10/04 04:17:25;;;;;;;17.03;5.67;;;10.70;1.00;;;;;;5089895;28;20499;-49
2022/10/04 04:19:52;;;;;;;16.40;5.97;;;10.70;1.00;;;;;;5084513;28;20227;-48
2022/10/04 04:22:18;;;;;;;11.33;5.33;;;10.70;1.00;;;;;;5090004;28;20439;-48
2022/10/04 04:24:45;;;;;;;14.97;6.40;;;10.80;1.00;;;;;;5089065;28;20474;-49
2022/10/04 04:27:15;;;;;;;18.80;7.50;;;10.80;1.00;;;;;;5090376;28;20450;-49
2022/10/04 04:29:53;;;;;;;12.77;6.57;;;10.80;1.00;;;;;;5088949;28;20449;-49
2022/10/04 04:32:30;;;;;;;13.40;7.50;;;10.80;1.00;;;;;;5089367;28;20538;-49
2022/10/04 04:35:07;;;;;;;19.93;7.30;;;10.70;1.00;;;;;;5088392;28;20444;-50
2022/10/04 04:37:37;;;;;;;14.07;6.70;;;10.80;1.00;;;;;;5089767;28;20472;-49
2022/10/04 04:40:21;;;;;;;15.03;6.50;;;10.80;1.00;;;;;;5089018;28;20447;-49
2022/10/04 04:42:48;;;;;;;17.87;7.03;;;10.80;1.00;;;;;;5089872;28;20522;-49
2022/10/04 04:45:25;;;;;;;17.10;7.23;;;10.80;1.00;;;;;;5082591;28;20573;-48
2022/10/04 04:47:52;;;;;;;19.50;7.83;;;10.80;1.00;;;;;;5089359;28;20442;-48
2022/10/04 04:50:29;;;;;;;11.83;7.93;;;10.80;1.00;;;;;;5074736;28;20554;-49
2022/10/04 04:53:05;;;;;;;9.80;6.73;;;10.80;1.00;;;;;;5090188;28;20506;-49
2022/10/04 04:55:37;;;;;;;20.03;8.80;;;10.80;1.00;;;;;;5087797;28;20956;-49
2022/10/04 04:58:04;;;;;;;13.40;8.17;;;10.80;1.00;;;;;;5090311;28;20427;-47
2022/10/04 05:00:32;;;;;;;17.17;9.17;;;10.90;1.00;;;;;;5089850;28;20536;-48
2022/10/04 05:03:01;;;;;;;19.53;9.50;;;10.90;1.00;;;;;;5090846;28;20438;-49
2022/10/04 05:05:29;;;;;;;13.63;8.20;;;10.80;1.00;;;;;;5085802;28;20522;-45
2022/10/04 05:08:21;;;;;;;17.57;9.13;;;10.90;1.00;;;;;;5090889;28;20424;-46
2022/10/04 05:11:08;;;;;;;22.13;8.33;;;10.90;1.00;;;;;;5089302;28;20491;-45
2022/10/04 05:13:40;;;;;;;16.60;8.23;;;10.90;1.00;;;;;;5090074;28;20770;-45
2022/10/04 05:16:49;;;;;;;15.20;7.70;;;10.90;1.00;;;;;;5082309;28;20530;-46
2022/10/04 05:19:20;;;;;;;19.27;7.93;;;10.90;1.00;;;;;;5055807;28;20506;-46
2022/10/04 05:21:47;;;;;;;24.87;8.70;;;10.90;1.00;;;;;;5091128;28;20449;-46
2022/10/04 05:24:16;;;;;;;20.43;8.53;;;10.90;1.00;;;;;;5088669;28;20469;-46
2022/10/04 05:26:42;;;;;;;19.00;9.07;;;10.90;1.00;;;;;;5084865;28;20781;-46
2022/10/04 05:29:17;;;;;;;17.87;8.47;;;10.90;1.00;;;;;;5089520;28;20432;-46
2022/10/04 05:31:58;;;;;;;14.07;8.03;;;10.90;1.00;;;;;;5087943;28;20184;-46
2022/10/04 05:34:35;;;;;;;14.03;8.37;;;10.90;1.00;;;;;;5082697;28;20438;-46
2022/10/04 05:37:15;;;;;;;16.20;8.47;;;10.90;1.00;;;;;;5089586;28;20429;-46
2022/10/04 05:40:29;;;;;;;21.27;8.30;;;10.90;1.00;;;;;;5088548;28;20458;-46
2022/10/04 05:42:57;;;;;;;17.70;8.63;;;10.90;1.00;;;;;;5053958;28;20439;-45
2022/10/04 05:45:26;;;;;;;21.50;9.63;;;10.90;1.00;;;;;;5087760;28;20466;-45
2022/10/04 05:47:53;;;;;;;24.87;10.00;;;10.90;1.00;;;;;;5089279;28;20451;-46
2022/10/04 05:50:22;;;;;;;20.87;9.70;;;10.90;1.00;;;;;;5088183;28;20437;-46
2022/10/04 05:52:50;;;;;;;20.73;9.10;;;10.90;1.00;;;;;;5084790;28;20466;-46
2022/10/04 05:55:44;;;;;;;17.93;8.80;;;10.90;1.00;;;;;;5088229;28;20453;-46
2022/10/04 05:58:18;;;;;;;20.77;9.90;;;11.00;1.00;;;;;;5084113;28;20928;-46
2022/10/04 06:00:55;;;;;;;16.93;9.40;;;11.00;1.00;;;;;;5092327;28;20533;-45
2022/10/04 06:03:27;;;;;;;17.23;9.80;;;11.10;1.00;;;;;;5092183;28;20439;-45
2022/10/04 06:05:59;;;;;;;13.13;8.10;;;11.10;1.00;;;;;;5091170;28;20437;-45
2022/10/04 06:08:43;;;;;;;18.00;9.97;;;11.10;1.00;;;;;;5093200;28;20434;-46
2022/10/04 06:11:17;;;;;;;15.23;8.60;;;11.10;1.00;;;;;;5091433;28;20443;-46
2022/10/04 06:14:01;;;;;;;16.23;9.20;;;11.00;1.00;;;;;;5092130;28;20516;-46
2022/10/04 06:16:27;;;;;;;19.83;9.43;;;11.10;1.00;;;;;;5085883;28;20431;-45
2022/10/04 06:19:22;;;;;;;14.27;9.43;;;11.00;1.00;;;;;;5092542;28;20428;-46
2022/10/04 06:22:15;;;;;;;15.37;8.70;;;11.00;1.00;;;;;;5092059;28;20504;-46
2022/10/04 06:24:45;;;;;;;18.60;8.53;;;11.00;1.00;;;;;;5087657;28;21005;-46
2022/10/04 06:27:13;;;;;;;21.20;9.50;;;11.00;1.00;;;;;;5091125;28;20434;-46
2022/10/04 06:29:47;;;;;;;17.20;9.60;;;10.90;1.00;;;;;;5092905;28;20922;-46
2022/10/04 06:32:27;;;;;;;18.53;8.70;;;10.90;1.00;;;;;;5091343;28;20430;-46
2022/10/04 06:35:02;;;;;;;28.73;10.20;;;10.90;1.00;;;;;;5089974;28;20465;-47
2022/10/04 06:37:55;;;;;;;25.43;10.20;;;10.90;1.00;;;;;;5070737;28;20436;-46
2022/10/04 06:40:43;;;;;;;21.70;9.37;;;11.00;1.00;;;;;;5090982;28;20449;-46
2022/10/04 06:43:39;;;;;;;21.47;10.60;;;11.10;1.00;;;;;;5088105;28;20446;-46
2022/10/04 06:46:43;;;;;;;21.10;9.57;;;11.20;1.00;;;;;;5088401;28;20466;-46
2022/10/04 06:49:17;;;;;;;16.13;10.17;;;11.20;1.00;;;;;;5092328;28;20536;-48
2022/10/04 06:52:06;;;;;;;19.03;10.83;;;11.30;1.00;;;;;;5093194;28;20490;-48
2022/10/04 06:54:38;;;;;;;24.07;10.20;;;11.40;99.90;;;;;;5081747;28;20551;-48
2022/10/04 06:57:37;;;;;;;24.50;10.10;;;11.60;99.90;;;;;;5091773;28;20466;-48
2022/10/04 07:00:27;;;;;;;14.03;8.77;;;11.80;99.90;;;;;;5088829;28;21181;-48
2022/10/04 07:03:37;;;;;;;18.40;9.73;;;11.90;99.90;;;;;;5088477;28;20430;-48
2022/10/04 07:06:06;;;;;;;15.90;9.17;;;12.00;99.90;;;;;;5089185;28;20439;-49
2022/10/04 07:08:42;;;;;;;15.90;9.10;;;12.10;93.70;;;;;;5091748;28;20450;-48
2022/10/04 07:11:18;;;;;;;18.53;8.37;;;12.20;32.60;;;;;;5090700;28;20419;-48
2022/10/04 07:14:01;;;;;;;18.50;8.37;;;12.30;19.90;;;;;;5086546;28;20446;-49
2022/10/04 07:16:27;;;;;;;12.50;8.87;;;12.40;1.00;;;;;;5090555;28;20908;-48
2022/10/04 07:19:03;;;;;;;24.00;9.23;;;12.50;1.00;;;;;;5091075;28;20427;-48
2022/10/04 07:21:39;;;;;;;13.87;8.37;;;12.60;1.00;;;;;;5089751;28;20211;-48
2022/10/04 07:24:11;;;;;;;14.27;8.50;;;12.80;1.00;;;;;;5090549;28;20466;-48
2022/10/04 07:26:46;;;;;;;15.27;8.20;;;12.90;1.00;;;;;;5090665;28;20453;-48
2022/10/04 07:29:27;;;;;;;19.43;9.10;;;13.00;1.00;;;;;;5089015;28;20430;-48
2022/10/04 07:32:07;;;;;;;13.43;8.53;;;13.00;99.90;;;;;;5089383;28;20546;-48
2022/10/04 07:34:44;;;;;;;14.27;8.63;;;12.90;99.90;;;;;;5087959;28;20521;-54
2022/10/04 07:37:12;;;;;;;16.23;8.40;;;12.80;99.90;;;;;;5090625;28;20431;-48
2022/10/04 07:40:03;;;;;;;18.07;8.83;;;12.80;99.90;;;;;;5089812;28;20508;-49
2022/10/04 07:42:45;;;;;;;25.47;9.47;;;12.80;99.90;;;;;;5081676;28;20457;-48
2022/10/04 07:45:21;;;;;;;17.70;9.50;;;12.80;99.90;;;;;;5092201;28;20494;-48
2022/10/04 07:47:47;;;;;;;19.03;9.37;;;12.80;99.90;;;;;;5085820;28;20434;-48
2022/10/04 07:50:20;;;;;;;17.13;8.67;;;12.80;99.90;;;;;;5091828;28;20430;-48
2022/10/04 07:53:06;;;;;;;19.13;8.90;;;12.80;99.90;;;;;;5089438;28;20506;-49
2022/10/04 07:56:01;;;;;;;17.17;9.30;;;12.90;99.90;;;;;;5088494;28;20466;-48
2022/10/04 07:59:20;;;;;;;25.07;8.83;;;12.90;99.90;;;;;;5090379;28;20450;-47
2022/10/04 08:02:06;;;;;;;13.70;8.70;;;12.90;99.90;;;;;;5020734;28;20452;-48
2022/10/04 08:04:40;;;;;;;18.00;9.50;;;12.90;99.90;;;;;;5086223;28;20501;-48
2022/10/04 08:07:32;;;;;;;15.93;9.50;;;13.00;99.90;;;;;;5088708;28;20537;-50
2022/10/04 08:10:09;;;;;;;16.00;9.50;;;13.10;99.90;;;;;;5084937;28;20951;-49
2022/10/04 08:12:59;;;;;;;17.90;9.60;;;13.10;99.90;;;;;;5089551;28;20439;-47
2022/10/04 08:15:39;;;;;;;16.57;10.30;;;13.20;99.90;;;;;;5088404;28;20450;-47
2022/10/04 08:18:10;;;;;;;19.07;9.87;;;13.30;99.90;;;;;;5087737;28;20435;-48
2022/10/04 08:20:48;;;;;;;17.70;9.30;;;13.40;99.90;;;;;;5089002;28;20427;-49
2022/10/04 08:23:51;;;;;;;20.70;10.87;;;13.40;67.40;;;;;;5089845;28;20542;-50
2022/10/04 08:26:28;;;;;;;19.93;9.63;;;13.50;57.60;;;;;;5086730;28;20975;-49
2022/10/04 08:29:41;;;;;;;18.07;9.77;;;13.60;1.00;;;;;;5089484;28;20431;-48
2022/10/04 08:32:34;;;;;;;14.93;9.60;;;13.80;1.00;;;;;;5089125;28;20458;-48
2022/10/04 08:35:22;;;;;;;23.37;9.73;;;14.00;1.00;;;;;;5089823;28;20521;-48
2022/10/04 08:38:20;;;;;;;15.50;9.40;;;14.20;99.90;;;;;;5088870;28;20431;-49
2022/10/04 08:41:23;;;;;;;13.23;9.33;;;14.40;99.90;;;;;;5089682;28;20427;-48
2022/10/04 08:44:09;;;;;;;19.23;9.00;;;14.60;7.20;;;;;;5089967;28;20501;-50
2022/10/04 08:47:12;;;;;;;25.20;10.10;;;14.70;1.00;;;;;;5091032;28;20474;-48
2022/10/04 08:50:02;;;;;;;19.70;9.93;;;14.80;99.90;;;;;;5088908;28;20423;-48
2022/10/04 08:53:16;;;;;;;19.57;8.80;;;14.90;99.90;;;;;;5086790;28;20831;-49
2022/10/04 08:56:00;;;;;;;20.90;8.90;;;14.80;1.00;;;;;;5085008;28;20530;-45
2022/10/04 08:58:47;;;;;;;21.00;8.23;;;14.80;99.90;;;;;;5089113;28;20468;-45
2022/10/04 09:01:51;;;;;;;13.90;8.53;;;14.80;99.90;;;;;;5088947;28;20463;-45
2022/10/04 09:04:47;;;;;;;18.00;8.47;;;14.80;1.00;;;;;;5088143;28;20470;-45
2022/10/04 09:07:35;;;;;;;14.20;8.73;;;14.90;1.00;;;;;;5086703;28;20438;-45
2022/10/04 09:10:01;;;;;;;19.97;8.87;;;14.90;1.00;;;;;;5085533;28;20458;-48
2022/10/04 09:12:43;;;;;;;22.37;9.13;;;14.90;99.90;;;;;;5089617;28;20470;-45
2022/10/04 09:15:29;;;;;;;19.93;8.57;;;15.00;59.00;;;;;;5089617;28;20188;-45
2022/10/04 09:18:21;;;;;;;17.60;8.20;;;15.00;1.00;;;;;;5090628;28;20503;-45
2022/10/04 09:21:00;;;;;;;21.00;7.90;;;15.10;1.00;;;;;;5087063;28;20871;-45
2022/10/04 09:23:33;;;;;;;15.93;9.00;;;15.20;99.90;;;;;;5090589;28;20808;-45
2022/10/04 09:26:07;;;;;;;13.13;7.73;;;15.20;99.90;;;;;;5090009;28;20434;-45
2022/10/04 09:28:54;;;;;;;18.97;7.53;;;15.30;1.00;;;;;;5089980;28;20974;-45
2022/10/04 09:31:36;;;;;;;14.03;8.20;;;15.50;1.00;;;;;;5091241;28;20437;-45
2022/10/04 09:34:16;;;;;;;24.77;8.47;;;15.60;74.60;;;;;;5074933;28;20430;-45
2022/10/04 09:36:51;;;;;;;18.50;9.10;;;15.70;1.00;;;;;;5092324;28;20947;-45
2022/10/04 09:40:05;;;;;;;18.17;7.87;;;15.80;91.20;;;;;;5092910;28;20487;-45
2022/10/04 09:42:49;;;;;;;16.77;8.23;;;15.90;99.90;;;;;;5093939;28;20442;-45
2022/10/04 09:45:19;;;;;;;14.07;7.43;;;16.00;99.90;;;;;;5093370;28;20469;-45
2022/10/04 09:48:00;;;;;;;18.13;7.57;;;16.00;1.00;;;;;;5091918;28;20465;-45
2022/10/04 09:50:40;;;;;;;18.80;8.07;;;16.00;60.30;;;;;;5093912;28;20450;-45
2022/10/04 09:53:06;;;;;;;18.53;7.73;;;15.90;99.90;;;;;;5091948;28;20449;-45
2022/10/04 09:56:13;;;;;;;17.77;8.20;;;15.80;1.00;;;;;;5093132;28;20434;-45
2022/10/04 09:59:11;;;;;;;13.97;7.30;;;15.70;1.00;;;;;;5088735;28;20189;-45
2022/10/04 10:02:01;;;;;;;18.63;7.80;;;15.70;1.00;;;;;;5093098;28;20534;-45
2022/10/04 10:05:08;;;;;;;11.80;6.90;;;15.70;99.90;;;;;;5091332;28;20936;-45
2022/10/04 10:07:33;;;;;;;19.83;6.70;;;15.80;1.00;;;;;;5077793;28;21143;-45
2022/10/04 10:16:18;;;;;;;15.57;6.87;;;16.30;99.90;;;;;;5091314;28;20434;-45
2022/10/04 10:18:55;;;;;;;14.83;6.90;;;16.50;1.00;;;;;;5093051;28;20569;-45
2022/10/04 10:21:58;;;;;;;13.63;7.07;;;16.60;1.00;;;;;;5093314;28;20855;-45
2022/10/04 10:25:09;;;;;;;14.10;6.90;;;16.70;1.00;;;;;;5092914;28;20494;-45
2022/10/04 10:27:53;;;;;;;12.93;6.17;;;16.80;1.00;;;;;;5089588;28;20434;-45
2022/10/04 10:31:07;;;;;;;16.83;6.93;;;17.30;1.00;;;;;;5093359;28;20418;-45
2022/10/04 10:33:38;;;;;;;16.70;7.00;;;18.60;14.60;;;;;;5092929;28;20443;-45
2022/10/04 10:36:27;;;;;;;16.37;6.80;;;19.90;1.00;;;;;;5091086;28;20439;-45
2022/10/04 10:39:19;;;;;;;14.93;6.73;;;20.80;1.00;;;;;;5087756;28;20454;-45
2022/10/04 10:42:06;;;;;;;16.40;5.87;;;21.50;1.00;;;;;;5088224;28;20427;-45
2022/10/04 10:45:09;;;;;;;9.73;6.13;;;22.20;1.00;;;;;;5088102;28;20458;-45
2022/10/04 10:48:08;;;;;;;11.83;6.20;;;22.90;1.00;;;;;;5091517;28;20434;-45
2022/10/04 10:50:58;;;;;;;14.17;6.73;;;23.30;1.00;;;;;;5023963;28;20433;-46
2022/10/04 10:53:46;;;;;;;14.17;5.60;;;24.00;1.00;;;;;;5087710;28;20439;-46
2022/10/04 10:56:18;;;;;;;11.93;5.40;;;24.70;1.00;;;;;;5086732;28;20420;-45
2022/10/04 10:59:21;;;;;;;16.10;5.50;;;25.10;1.00;;;;;;5092326;28;20933;-46
2022/10/04 11:02:17;;;;;;;17.07;5.70;;;25.60;1.00;;;;;;5086173;28;20430;-45
2022/10/04 11:04:48;;;;;;;10.90;5.63;;;25.90;1.00;;;;;;5086932;28;20477;-51
2022/10/04 11:07:29;;;;;;;15.23;5.30;;;25.90;99.90;;;;;;5091466;28;20419;-45
2022/10/04 11:10:13;;;;;;;8.57;5.80;;;26.20;99.90;;;;;;5073858;28;20446;-46
2022/10/04 11:13:37;;;;;;;10.07;4.93;;;26.70;99.90;;;;;;5090997;28;20479;-46
2022/10/04 11:16:20;;;;;;;17.37;5.43;;;27.10;99.90;;;;;;5032701;28;21001;-49
2022/10/04 11:19:03;;;;;;;14.37;5.33;;;26.60;99.90;;;;;;5091823;28;20459;-49
2022/10/04 11:22:05;;;;;;;12.73;5.80;;;26.40;99.90;;;;;;5091811;28;20833;-50
2022/10/04 11:24:56;;;;;;;14.23;5.97;;;26.20;99.90;;;;;;5089675;28;20462;-54
2022/10/04 11:27:28;;;;;;;11.00;5.47;;;26.70;99.90;;;;;;5089711;28;21127;-50
2022/10/04 11:30:02;;;;;;;16.63;5.00;;;26.90;99.90;;;;;;5092323;28;20433;-50
2022/10/04 11:33:02;;;;;;;10.00;4.80;;;26.80;99.90;;;;;;5088822;28;20446;-49
2022/10/04 11:35:50;;;;;;;13.20;4.97;;;26.40;99.90;;;;;;5091093;28;20450;-46
2022/10/04 11:38:47;;;;;;;11.83;4.43;;;26.30;99.90;;;;;;5073162;28;20437;-45
2022/10/04 11:41:38;;;;;;;9.10;4.63;;;26.20;99.90;;;;;;5089754;28;20442;-46
2022/10/04 11:44:15;;;;;;;8.03;4.67;;;26.20;99.90;;;;;;5087053;28;20466;-49
2022/10/04 11:47:02;;;;;;;8.67;4.20;;;25.40;99.90;;;;;;5090234;28;20503;-49
2022/10/04 11:50:07;;;;;;;9.57;4.17;;;24.60;99.90;;;;;;5091690;28;20483;-49
2022/10/04 11:52:53;;;;;;;12.80;4.87;;;24.80;99.90;;;;;;5090262;28;20486;-49
2022/10/04 11:55:30;;;;;;;9.33;3.63;;;25.20;99.90;;;;;;5091192;28;20553;-46
2022/10/04 11:58:31;;;;;;;10.87;4.10;;;25.90;99.90;;;;;;5088652;28;20449;-46
2022/10/04 12:01:23;;;;;;;10.47;3.20;;;26.40;99.90;;;;;;5089423;28;20882;-46
2022/10/04 12:03:58;;;;;;;13.47;3.60;;;24.90;99.90;;;;;;5088564;28;20435;-45
2022/10/04 12:06:40;;;;;;;8.00;3.77;;;23.20;99.90;;;;;;5090276;28;20474;-45
2022/10/04 12:09:18;;;;;;;9.27;3.50;;;22.40;99.90;;;;;;5086027;28;20505;-45
2022/10/04 12:15:02;;;;;;;8.20;3.43;;;22.00;99.90;;;;;;5084703;28;20533;-45
2022/10/04 12:17:49;;;;;;;8.67;3.90;;;22.60;99.90;;;;;;5089295;28;20438;-45
2022/10/04 12:20:35;;;;;;;8.10;2.50;;;23.40;99.90;;;;;;5088726;28;20431;-45
2022/10/04 12:23:10;;;;;;;17.30;3.00;;;23.90;99.90;;;;;;5089663;28;21171;-45
2022/10/04 12:25:47;;;;;;;6.97;2.80;;;23.60;99.90;;;;;;5089115;28;20570;-46
2022/10/04 12:28:24;;;;;;;16.57;3.30;;;24.20;99.90;;;;;;5088762;28;20793;-48
2022/10/04 12:30:59;;;;;;;6.33;3.17;;;24.70;99.90;;;;;;5088965;28;20524;-45
2022/10/04 12:33:30;;;;;;;10.17;3.00;;;24.70;99.90;;;;;;5083373;28;20464;-46
2022/10/04 12:36:14;;;;;;;11.30;2.90;;;25.10;99.90;;;;;;5088475;28;20796;-46
2022/10/04 12:38:46;;;;;;;8.50;2.80;;;25.90;99.90;;;;;;5089419;28;20443;-46
2022/10/04 12:41:31;;;;;;;6.70;3.17;;;26.20;99.90;;;;;;5090613;28;20802;-46
2022/10/04 12:43:57;;;;;;;11.30;3.23;;;26.00;99.90;;;;;;5083392;28;20462;-46
2022/10/04 12:46:38;;;;;;;9.17;3.53;;;26.00;99.90;;;;;;5089046;28;20446;-46
2022/10/04 12:49:19;;;;;;;10.70;4.27;;;26.10;99.90;;;;;;5087172;28;20431;-46
2022/10/04 12:51:47;;;;;;;11.07;3.40;;;26.30;99.90;;;;;;5086388;28;20471;-46
2022/10/04 12:54:37;;;;;;;8.20;3.47;;;26.20;99.90;;;;;;5085628;28;20444;-49
2022/10/04 12:57:19;;;;;;;11.90;3.60;;;26.00;99.90;;;;;;5084629;28;20469;-49
2022/10/04 12:59:59;;;;;;;6.17;3.10;;;25.90;99.90;;;;;;5086048;28;20442;-50
2022/10/04 13:02:50;;;;;;;7.70;3.40;;;25.40;99.90;;;;;;5088520;28;20446;-50
2022/10/04 13:05:24;;;;;;;7.93;3.57;;;24.80;99.90;;;;;;5088399;28;20558;-50
2022/10/04 13:08:10;;;;;;;8.47;3.00;;;24.80;99.90;;;;;;5089903;28;20462;-50
2022/10/04 13:11:08;;;;;;;7.77;3.17;;;25.00;99.90;;;;;;5093227;28;20431;-49
2022/10/04 13:14:09;;;;;;;6.07;3.17;;;25.30;99.90;;;;;;5090131;28;20437;-49
2022/10/04 13:16:51;;;;;;;8.10;3.40;;;24.90;99.90;;;;;;5087292;28;20435;-49
2022/10/04 13:19:49;;;;;;;10.63;3.37;;;24.10;99.90;;;;;;5091984;28;20434;-49
2022/10/04 13:22:30;;;;;;;8.47;3.20;;;23.40;99.90;;;;;;5088473;28;20422;-48
2022/10/04 13:25:33;;;;;;;9.60;3.70;;;22.90;99.90;;;;;;5091436;28;20471;-49
2022/10/04 13:28:30;;;;;;;7.27;3.83;;;22.80;99.90;;;;;;5086544;28;20459;-49
2022/10/04 13:31:09;;;;;;;10.23;3.80;;;23.50;99.90;;;;;;5090453;28;20529;-49
2022/10/04 13:33:52;;;;;;;10.20;3.50;;;23.80;99.90;;;;;;5089863;28;20474;-49
2022/10/04 13:36:39;;;;;;;8.67;3.10;;;24.00;99.90;;;;;;5086659;28;20481;-49
2022/10/04 13:39:37;;;;;;;10.13;3.30;;;24.10;99.90;;;;;;5092052;28;20871;-49
2022/10/04 13:42:28;;;;;;;5.90;3.40;;;23.90;99.90;;;;;;5089292;28;20755;-49
2022/10/04 13:45:05;;;;;;;5.97;3.13;;;23.90;99.90;;;;;;5088535;28;20466;-50
2022/10/04 13:47:37;;;;;;;13.83;3.47;;;24.10;99.90;;;;;;5091182;28;20504;-49
2022/10/04 13:50:21;;;;;;;5.97;3.50;;;24.30;99.90;;;;;;5088489;28;20496;-49
2022/10/04 13:59:04;;;;;;;10.10;3.10;;;24.60;99.90;;;;;;5090986;28;20481;-46
2022/10/04 14:02:02;;;;;;;5.10;2.47;;;24.40;99.90;;;;;;5088580;28;20435;-46
2022/10/04 14:05:02;;;;;;;5.87;2.87;;;23.90;99.90;;;;;;5089234;28;20512;-46
2022/10/04 14:07:31;;;;;;;7.63;2.93;;;23.60;99.90;;;;;;5089544;28;20431;-45
2022/10/04 14:10:21;;;;;;;5.43;2.73;;;23.30;99.90;;;;;;5091728;28;20912;-45